sensor_id;sensor_type;location;lat;lon;timestamp;P1;durP1;ratioP1;P2;durP2;ratioP2
33279;SDS011;20403;43.114;12.434;2023-04-28T00:01:12;5.20;;;1.52;;
33279;SDS011;20403;43.114;12.434;2023-04-28T00:03:38;4.93;;;1.45;;
33279;SDS011;20403;43.114;12.434;2023-04-28T00:06:03;4.55;;;1.38;;
33279;SDS011;20403;43.114;12.434;2023-04-28T00:08:30;4.50;;;1.63;;
33279;SDS011;20403;43.114;12.434;2023-04-28T00:10:55;3.75;;;1.50;;
33279;SDS011;20403;43.114;12.434;2023-04-28T00:13:20;4.03;;;1.50;;
33279;SDS011;20403;43.114;12.434;2023-04-28T00:15:46;4.53;;;1.50;;
33279;SDS011;20403;43.114;12.434;2023-04-28T00:18:11;5.47;;;1.45;;
33279;SDS011;20403;43.114;12.434;2023-04-28T00:20:37;4.88;;;1.20;;
33279;SDS011;20403;43.114;12.434;2023-04-28T00:23:02;4.15;;;1.30;;
33279;SDS011;20403;43.114;12.434;2023-04-28T00:25:27;2.65;;;1.30;;
33279;SDS011;20403;43.114;12.434;2023-04-28T00:27:53;3.67;;;1.48;;
33279;SDS011;20403;43.114;12.434;2023-04-28T00:30:18;2.15;;;1.45;;
33279;SDS011;20403;43.114;12.434;2023-04-28T00:32:44;3.22;;;1.35;;
33279;SDS011;20403;43.114;12.434;2023-04-28T00:35:09;3.00;;;1.40;;
33279;SDS011;20403;43.114;12.434;2023-04-28T00:37:35;3.85;;;1.67;;
33279;SDS011;20403;43.114;12.434;2023-04-28T00:40:02;2.95;;;1.30;;
33279;SDS011;20403;43.114;12.434;2023-04-28T00:42:27;5.70;;;1.65;;
33279;SDS011;20403;43.114;12.434;2023-04-28T00:44:53;5.32;;;1.45;;
33279;SDS011;20403;43.114;12.434;2023-04-28T00:47:18;3.15;;;1.42;;
33279;SDS011;20403;43.114;12.434;2023-04-28T00:49:44;8.88;;;1.60;;
33279;SDS011;20403;43.114;12.434;2023-04-28T00:52:11;5.22;;;1.30;;
33279;SDS011;20403;43.114;12.434;2023-04-28T00:54:37;6.25;;;1.60;;
33279;SDS011;20403;43.114;12.434;2023-04-28T00:57:02;7.03;;;1.60;;
33279;SDS011;20403;43.114;12.434;2023-04-28T00:59:28;3.58;;;1.30;;
33279;SDS011;20403;43.114;12.434;2023-04-28T01:01:54;6.57;;;1.63;;
33279;SDS011;20403;43.114;12.434;2023-04-28T01:04:20;5.85;;;1.67;;
33279;SDS011;20403;43.114;12.434;2023-04-28T01:06:47;5.68;;;1.85;;
33279;SDS011;20403;43.114;12.434;2023-04-28T01:09:13;2.88;;;1.40;;
33279;SDS011;20403;43.114;12.434;2023-04-28T01:11:38;3.13;;;1.50;;
33279;SDS011;20403;43.114;12.434;2023-04-28T01:14:04;3.20;;;1.65;;
33279;SDS011;20403;43.114;12.434;2023-04-28T01:16:29;3.22;;;1.67;;
33279;SDS011;20403;43.114;12.434;2023-04-28T01:18:56;3.72;;;1.58;;
33279;SDS011;20403;43.114;12.434;2023-04-28T01:21:40;3.47;;;1.80;;
33279;SDS011;20403;43.114;12.434;2023-04-28T01:24:06;3.83;;;1.50;;
33279;SDS011;20403;43.114;12.434;2023-04-28T01:26:31;4.47;;;1.48;;
33279;SDS011;20403;43.114;12.434;2023-04-28T01:28:56;4.95;;;1.63;;
33279;SDS011;20403;43.114;12.434;2023-04-28T01:31:22;4.57;;;1.50;;
33279;SDS011;20403;43.114;12.434;2023-04-28T01:33:47;4.60;;;1.70;;
33279;SDS011;20403;43.114;12.434;2023-04-28T01:36:13;3.00;;;1.80;;
33279;SDS011;20403;43.114;12.434;2023-04-28T01:38:38;3.38;;;1.63;;
33279;SDS011;20403;43.114;12.434;2023-04-28T01:41:03;3.53;;;1.80;;
33279;SDS011;20403;43.114;12.434;2023-04-28T01:43:29;3.65;;;1.77;;
33279;SDS011;20403;43.114;12.434;2023-04-28T01:45:54;5.20;;;1.50;;
33279;SDS011;20403;43.114;12.434;2023-04-28T01:48:20;3.45;;;1.60;;
33279;SDS011;20403;43.114;12.434;2023-04-28T01:50:45;4.03;;;1.40;;
33279;SDS011;20403;43.114;12.434;2023-04-28T01:53:11;5.32;;;1.52;;
33279;SDS011;20403;43.114;12.434;2023-04-28T01:55:36;5.60;;;1.67;;
33279;SDS011;20403;43.114;12.434;2023-04-28T01:58:02;1.90;;;1.30;;
33279;SDS011;20403;43.114;12.434;2023-04-28T02:00:28;3.28;;;1.40;;
33279;SDS011;20403;43.114;12.434;2023-04-28T02:02:54;5.28;;;1.60;;
33279;SDS011;20403;43.114;12.434;2023-04-28T02:05:19;3.15;;;1.35;;
33279;SDS011;20403;43.114;12.434;2023-04-28T02:07:45;5.70;;;1.55;;
33279;SDS011;20403;43.114;12.434;2023-04-28T02:10:10;4.28;;;1.67;;
33279;SDS011;20403;43.114;12.434;2023-04-28T02:12:36;6.45;;;1.65;;
33279;SDS011;20403;43.114;12.434;2023-04-28T02:15:01;5.63;;;1.65;;
33279;SDS011;20403;43.114;12.434;2023-04-28T02:17:28;3.58;;;1.85;;
33279;SDS011;20403;43.114;12.434;2023-04-28T02:19:54;3.92;;;1.45;;
33279;SDS011;20403;43.114;12.434;2023-04-28T02:22:23;3.25;;;1.67;;
33279;SDS011;20403;43.114;12.434;2023-04-28T02:24:49;4.63;;;2.00;;
33279;SDS011;20403;43.114;12.434;2023-04-28T02:27:15;9.55;;;1.67;;
33279;SDS011;20403;43.114;12.434;2023-04-28T02:29:40;4.20;;;1.67;;
33279;SDS011;20403;43.114;12.434;2023-04-28T02:32:06;3.75;;;1.63;;
33279;SDS011;20403;43.114;12.434;2023-04-28T02:34:32;3.92;;;1.48;;
33279;SDS011;20403;43.114;12.434;2023-04-28T02:36:57;2.00;;;1.35;;
33279;SDS011;20403;43.114;12.434;2023-04-28T02:39:22;2.53;;;1.50;;
33279;SDS011;20403;43.114;12.434;2023-04-28T02:41:54;6.68;;;1.90;;
33279;SDS011;20403;43.114;12.434;2023-04-28T02:44:20;7.70;;;1.77;;
33279;SDS011;20403;43.114;12.434;2023-04-28T02:46:46;5.70;;;1.83;;
33279;SDS011;20403;43.114;12.434;2023-04-28T02:49:11;5.97;;;1.63;;
33279;SDS011;20403;43.114;12.434;2023-04-28T02:51:37;4.43;;;1.52;;
33279;SDS011;20403;43.114;12.434;2023-04-28T02:54:03;3.78;;;1.63;;
33279;SDS011;20403;43.114;12.434;2023-04-28T02:56:29;2.85;;;1.67;;
33279;SDS011;20403;43.114;12.434;2023-04-28T02:58:54;5.00;;;1.58;;
33279;SDS011;20403;43.114;12.434;2023-04-28T03:01:20;3.47;;;1.60;;
33279;SDS011;20403;43.114;12.434;2023-04-28T03:03:45;3.40;;;1.80;;
33279;SDS011;20403;43.114;12.434;2023-04-28T03:06:11;3.85;;;1.92;;
33279;SDS011;20403;43.114;12.434;2023-04-28T03:08:36;3.92;;;1.60;;
33279;SDS011;20403;43.114;12.434;2023-04-28T03:11:02;5.00;;;1.88;;
33279;SDS011;20403;43.114;12.434;2023-04-28T03:13:27;4.32;;;1.80;;
33279;SDS011;20403;43.114;12.434;2023-04-28T03:15:54;4.00;;;1.67;;
33279;SDS011;20403;43.114;12.434;2023-04-28T03:18:20;4.63;;;1.98;;
33279;SDS011;20403;43.114;12.434;2023-04-28T03:20:46;7.47;;;2.05;;
33279;SDS011;20403;43.114;12.434;2023-04-28T03:23:12;4.75;;;1.67;;
33279;SDS011;20403;43.114;12.434;2023-04-28T03:25:37;5.25;;;1.80;;
33279;SDS011;20403;43.114;12.434;2023-04-28T03:28:03;5.07;;;1.65;;
33279;SDS011;20403;43.114;12.434;2023-04-28T03:30:29;2.65;;;1.67;;
33279;SDS011;20403;43.114;12.434;2023-04-28T03:32:54;4.28;;;1.98;;
33279;SDS011;20403;43.114;12.434;2023-04-28T03:35:20;4.22;;;1.90;;
33279;SDS011;20403;43.114;12.434;2023-04-28T03:37:45;4.72;;;1.67;;
33279;SDS011;20403;43.114;12.434;2023-04-28T03:40:11;4.30;;;2.13;;
33279;SDS011;20403;43.114;12.434;2023-04-28T03:42:36;6.07;;;2.08;;
33279;SDS011;20403;43.114;12.434;2023-04-28T03:45:02;3.95;;;2.35;;
33279;SDS011;20403;43.114;12.434;2023-04-28T03:47:27;3.63;;;1.92;;
33279;SDS011;20403;43.114;12.434;2023-04-28T03:49:53;4.47;;;1.60;;
33279;SDS011;20403;43.114;12.434;2023-04-28T03:52:18;4.60;;;1.98;;
33279;SDS011;20403;43.114;12.434;2023-04-28T03:54:44;4.80;;;1.88;;
33279;SDS011;20403;43.114;12.434;2023-04-28T03:57:10;5.80;;;1.67;;
33279;SDS011;20403;43.114;12.434;2023-04-28T03:59:35;5.40;;;1.60;;
33279;SDS011;20403;43.114;12.434;2023-04-28T04:02:00;3.50;;;1.50;;
33279;SDS011;20403;43.114;12.434;2023-04-28T04:04:26;3.90;;;1.52;;
33279;SDS011;20403;43.114;12.434;2023-04-28T04:06:52;4.95;;;1.80;;
33279;SDS011;20403;43.114;12.434;2023-04-28T04:09:17;3.60;;;1.65;;
33279;SDS011;20403;43.114;12.434;2023-04-28T04:11:43;3.88;;;1.85;;
33279;SDS011;20403;43.114;12.434;2023-04-28T04:14:08;4.90;;;1.90;;
33279;SDS011;20403;43.114;12.434;2023-04-28T04:16:34;4.95;;;1.77;;
33279;SDS011;20403;43.114;12.434;2023-04-28T04:19:00;4.43;;;1.65;;
33279;SDS011;20403;43.114;12.434;2023-04-28T04:21:25;9.00;;;2.05;;
33279;SDS011;20403;43.114;12.434;2023-04-28T04:23:51;6.97;;;1.80;;
33279;SDS011;20403;43.114;12.434;2023-04-28T04:26:17;10.63;;;1.63;;
33279;SDS011;20403;43.114;12.434;2023-04-28T04:28:43;8.10;;;1.88;;
33279;SDS011;20403;43.114;12.434;2023-04-28T04:31:08;27.80;;;2.78;;
33279;SDS011;20403;43.114;12.434;2023-04-28T04:33:33;31.95;;;2.92;;
33279;SDS011;20403;43.114;12.434;2023-04-28T04:35:59;21.15;;;2.55;;
33279;SDS011;20403;43.114;12.434;2023-04-28T04:38:24;8.80;;;2.60;;
33279;SDS011;20403;43.114;12.434;2023-04-28T04:40:50;15.18;;;2.53;;
33279;SDS011;20403;43.114;12.434;2023-04-28T04:43:15;8.35;;;2.05;;
33279;SDS011;20403;43.114;12.434;2023-04-28T04:45:41;6.68;;;2.65;;
33279;SDS011;20403;43.114;12.434;2023-04-28T04:48:06;6.78;;;2.08;;
33279;SDS011;20403;43.114;12.434;2023-04-28T04:50:32;6.88;;;1.77;;
33279;SDS011;20403;43.114;12.434;2023-04-28T04:52:57;4.05;;;1.98;;
33279;SDS011;20403;43.114;12.434;2023-04-28T04:55:23;6.78;;;2.05;;
33279;SDS011;20403;43.114;12.434;2023-04-28T04:57:48;8.60;;;2.15;;
33279;SDS011;20403;43.114;12.434;2023-04-28T05:00:13;4.82;;;2.10;;
33279;SDS011;20403;43.114;12.434;2023-04-28T05:02:40;8.38;;;2.38;;
33279;SDS011;20403;43.114;12.434;2023-04-28T05:05:06;6.03;;;1.98;;
33279;SDS011;20403;43.114;12.434;2023-04-28T05:07:32;5.95;;;1.80;;
33279;SDS011;20403;43.114;12.434;2023-04-28T05:09:58;4.85;;;1.90;;
33279;SDS011;20403;43.114;12.434;2023-04-28T05:12:24;6.82;;;2.03;;
33279;SDS011;20403;43.114;12.434;2023-04-28T05:14:50;2.58;;;1.67;;
33279;SDS011;20403;43.114;12.434;2023-04-28T05:17:16;6.20;;;1.80;;
33279;SDS011;20403;43.114;12.434;2023-04-28T05:19:41;20.27;;;3.15;;
33279;SDS011;20403;43.114;12.434;2023-04-28T05:22:06;7.90;;;2.38;;
33279;SDS011;20403;43.114;12.434;2023-04-28T05:24:32;9.15;;;2.15;;
33279;SDS011;20403;43.114;12.434;2023-04-28T05:26:57;9.52;;;2.47;;
33279;SDS011;20403;43.114;12.434;2023-04-28T05:29:23;6.40;;;2.40;;
33279;SDS011;20403;43.114;12.434;2023-04-28T05:31:49;7.10;;;2.55;;
33279;SDS011;20403;43.114;12.434;2023-04-28T05:34:14;11.75;;;3.33;;
33279;SDS011;20403;43.114;12.434;2023-04-28T05:36:40;5.88;;;2.22;;
33279;SDS011;20403;43.114;12.434;2023-04-28T05:39:05;9.57;;;2.65;;
33279;SDS011;20403;43.114;12.434;2023-04-28T05:41:31;10.52;;;2.40;;
33279;SDS011;20403;43.114;12.434;2023-04-28T05:43:57;6.97;;;2.63;;
33279;SDS011;20403;43.114;12.434;2023-04-28T05:46:22;8.80;;;2.85;;
33279;SDS011;20403;43.114;12.434;2023-04-28T05:48:47;5.57;;;2.28;;
33279;SDS011;20403;43.114;12.434;2023-04-28T05:51:13;6.85;;;2.58;;
33279;SDS011;20403;43.114;12.434;2023-04-28T05:53:38;3.38;;;2.05;;
33279;SDS011;20403;43.114;12.434;2023-04-28T05:56:04;6.88;;;2.45;;
33279;SDS011;20403;43.114;12.434;2023-04-28T05:58:30;7.53;;;2.70;;
33279;SDS011;20403;43.114;12.434;2023-04-28T06:00:55;7.00;;;2.30;;
33279;SDS011;20403;43.114;12.434;2023-04-28T06:03:21;15.20;;;2.25;;
33279;SDS011;20403;43.114;12.434;2023-04-28T06:05:46;7.13;;;2.35;;
33279;SDS011;20403;43.114;12.434;2023-04-28T06:08:12;9.57;;;2.83;;
33279;SDS011;20403;43.114;12.434;2023-04-28T06:10:37;5.95;;;2.20;;
33279;SDS011;20403;43.114;12.434;2023-04-28T06:13:03;9.15;;;2.78;;
33279;SDS011;20403;43.114;12.434;2023-04-28T06:15:30;8.57;;;2.47;;
33279;SDS011;20403;43.114;12.434;2023-04-28T06:17:56;10.88;;;2.63;;
33279;SDS011;20403;43.114;12.434;2023-04-28T06:20:23;8.63;;;2.88;;
33279;SDS011;20403;43.114;12.434;2023-04-28T06:22:48;5.85;;;2.72;;
33279;SDS011;20403;43.114;12.434;2023-04-28T06:25:13;10.23;;;2.55;;
33279;SDS011;20403;43.114;12.434;2023-04-28T06:27:39;10.45;;;2.20;;
33279;SDS011;20403;43.114;12.434;2023-04-28T06:30:04;9.48;;;2.53;;
33279;SDS011;20403;43.114;12.434;2023-04-28T06:32:30;7.50;;;2.80;;
33279;SDS011;20403;43.114;12.434;2023-04-28T06:34:56;8.95;;;2.70;;
33279;SDS011;20403;43.114;12.434;2023-04-28T06:37:21;7.97;;;2.30;;
33279;SDS011;20403;43.114;12.434;2023-04-28T06:39:47;11.07;;;2.60;;
33279;SDS011;20403;43.114;12.434;2023-04-28T06:42:12;5.47;;;2.55;;
33279;SDS011;20403;43.114;12.434;2023-04-28T06:44:40;6.45;;;2.80;;
33279;SDS011;20403;43.114;12.434;2023-04-28T06:47:05;7.43;;;2.42;;
33279;SDS011;20403;43.114;12.434;2023-04-28T06:49:31;14.30;;;2.95;;
33279;SDS011;20403;43.114;12.434;2023-04-28T06:51:56;15.68;;;2.60;;
33279;SDS011;20403;43.114;12.434;2023-04-28T06:54:21;10.15;;;3.00;;
33279;SDS011;20403;43.114;12.434;2023-04-28T06:56:47;8.73;;;2.58;;
33279;SDS011;20403;43.114;12.434;2023-04-28T06:59:12;9.52;;;2.58;;
33279;SDS011;20403;43.114;12.434;2023-04-28T07:01:38;8.52;;;3.05;;
33279;SDS011;20403;43.114;12.434;2023-04-28T07:04:03;8.02;;;2.70;;
33279;SDS011;20403;43.114;12.434;2023-04-28T07:06:28;7.75;;;2.60;;
33279;SDS011;20403;43.114;12.434;2023-04-28T07:08:55;9.63;;;2.58;;
33279;SDS011;20403;43.114;12.434;2023-04-28T07:11:21;5.57;;;2.42;;
33279;SDS011;20403;43.114;12.434;2023-04-28T07:13:47;5.70;;;2.90;;
33279;SDS011;20403;43.114;12.434;2023-04-28T07:16:15;7.72;;;2.20;;
33279;SDS011;20403;43.114;12.434;2023-04-28T07:18:41;8.27;;;2.63;;
33279;SDS011;20403;43.114;12.434;2023-04-28T07:21:06;12.82;;;2.80;;
33279;SDS011;20403;43.114;12.434;2023-04-28T07:23:32;8.48;;;2.30;;
33279;SDS011;20403;43.114;12.434;2023-04-28T07:25:58;10.18;;;3.10;;
33279;SDS011;20403;43.114;12.434;2023-04-28T07:28:23;4.07;;;1.90;;
33279;SDS011;20403;43.114;12.434;2023-04-28T07:30:49;7.03;;;2.60;;
33279;SDS011;20403;43.114;12.434;2023-04-28T07:33:14;6.63;;;2.20;;
33279;SDS011;20403;43.114;12.434;2023-04-28T07:35:40;6.82;;;2.15;;
33279;SDS011;20403;43.114;12.434;2023-04-28T07:38:05;6.20;;;2.50;;
33279;SDS011;20403;43.114;12.434;2023-04-28T07:40:31;7.82;;;2.78;;
33279;SDS011;20403;43.114;12.434;2023-04-28T07:42:56;6.05;;;2.00;;
33279;SDS011;20403;43.114;12.434;2023-04-28T07:45:22;7.03;;;1.88;;
33279;SDS011;20403;43.114;12.434;2023-04-28T07:47:47;6.38;;;2.58;;
33279;SDS011;20403;43.114;12.434;2023-04-28T07:50:13;22.52;;;3.80;;
33279;SDS011;20403;43.114;12.434;2023-04-28T07:52:38;11.10;;;2.67;;
33279;SDS011;20403;43.114;12.434;2023-04-28T07:55:03;28.20;;;3.10;;
33279;SDS011;20403;43.114;12.434;2023-04-28T07:57:30;6.90;;;2.30;;
33279;SDS011;20403;43.114;12.434;2023-04-28T07:59:55;7.55;;;2.50;;
33279;SDS011;20403;43.114;12.434;2023-04-28T08:02:20;8.40;;;3.00;;
33279;SDS011;20403;43.114;12.434;2023-04-28T08:04:46;18.38;;;3.50;;
33279;SDS011;20403;43.114;12.434;2023-04-28T08:07:11;11.05;;;3.47;;
33279;SDS011;20403;43.114;12.434;2023-04-28T08:09:37;15.55;;;3.83;;
33279;SDS011;20403;43.114;12.434;2023-04-28T08:12:04;12.13;;;3.78;;
33279;SDS011;20403;43.114;12.434;2023-04-28T08:14:30;12.25;;;4.13;;
33279;SDS011;20403;43.114;12.434;2023-04-28T08:16:55;10.00;;;4.03;;
33279;SDS011;20403;43.114;12.434;2023-04-28T08:19:21;11.00;;;3.67;;
33279;SDS011;20403;43.114;12.434;2023-04-28T08:21:47;7.07;;;3.55;;
33279;SDS011;20403;43.114;12.434;2023-04-28T08:24:12;9.43;;;3.53;;
33279;SDS011;20403;43.114;12.434;2023-04-28T08:26:37;5.55;;;2.25;;
33279;SDS011;20403;43.114;12.434;2023-04-28T08:29:04;4.25;;;1.42;;
33279;SDS011;20403;43.114;12.434;2023-04-28T08:31:29;4.32;;;1.90;;
33279;SDS011;20403;43.114;12.434;2023-04-28T08:33:55;3.85;;;1.70;;
33279;SDS011;20403;43.114;12.434;2023-04-28T08:36:20;5.93;;;1.50;;
33279;SDS011;20403;43.114;12.434;2023-04-28T08:38:45;6.28;;;1.80;;
33279;SDS011;20403;43.114;12.434;2023-04-28T08:41:12;7.05;;;2.22;;
33279;SDS011;20403;43.114;12.434;2023-04-28T08:43:39;3.33;;;1.77;;
33279;SDS011;20403;43.114;12.434;2023-04-28T08:46:07;2.95;;;1.55;;
33279;SDS011;20403;43.114;12.434;2023-04-28T08:48:40;6.25;;;1.70;;
33279;SDS011;20403;43.114;12.434;2023-04-28T08:51:09;5.13;;;1.80;;
33279;SDS011;20403;43.114;12.434;2023-04-28T08:56:09;6.85;;;1.80;;
33279;SDS011;20403;43.114;12.434;2023-04-28T08:58:38;6.03;;;1.92;;
33279;SDS011;20403;43.114;12.434;2023-04-28T09:01:03;6.57;;;1.65;;
33279;SDS011;20403;43.114;12.434;2023-04-28T09:03:30;7.78;;;2.10;;
33279;SDS011;20403;43.114;12.434;2023-04-28T09:05:59;6.45;;;1.80;;
33279;SDS011;20403;43.114;12.434;2023-04-28T09:08:26;4.13;;;1.67;;
33279;SDS011;20403;43.114;12.434;2023-04-28T09:11:06;8.10;;;1.45;;
33279;SDS011;20403;43.114;12.434;2023-04-28T09:13:33;7.78;;;1.40;;
33279;SDS011;20403;43.114;12.434;2023-04-28T09:15:59;3.90;;;1.20;;
33279;SDS011;20403;43.114;12.434;2023-04-28T09:18:26;3.22;;;1.50;;
33279;SDS011;20403;43.114;12.434;2023-04-28T09:21:01;2.38;;;1.13;;
33279;SDS011;20403;43.114;12.434;2023-04-28T09:23:31;6.72;;;1.45;;
33279;SDS011;20403;43.114;12.434;2023-04-28T09:26:01;7.55;;;1.50;;
33279;SDS011;20403;43.114;12.434;2023-04-28T09:28:28;3.08;;;1.45;;
33279;SDS011;20403;43.114;12.434;2023-04-28T09:30:54;5.85;;;1.10;;
33279;SDS011;20403;43.114;12.434;2023-04-28T09:33:19;3.67;;;1.20;;
33279;SDS011;20403;43.114;12.434;2023-04-28T09:35:45;9.25;;;1.55;;
33279;SDS011;20403;43.114;12.434;2023-04-28T09:38:12;7.40;;;1.25;;
33279;SDS011;20403;43.114;12.434;2023-04-28T09:43:26;3.90;;;1.50;;
33279;SDS011;20403;43.114;12.434;2023-04-28T09:45:52;2.80;;;1.10;;
33279;SDS011;20403;43.114;12.434;2023-04-28T09:48:25;3.17;;;1.30;;
33279;SDS011;20403;43.114;12.434;2023-04-28T09:50:52;7.57;;;1.13;;
33279;SDS011;20403;43.114;12.434;2023-04-28T09:53:21;3.45;;;1.20;;
33279;SDS011;20403;43.114;12.434;2023-04-28T09:55:47;6.40;;;1.42;;
33279;SDS011;20403;43.114;12.434;2023-04-28T09:58:15;5.28;;;1.25;;
33279;SDS011;20403;43.114;12.434;2023-04-28T10:00:53;3.50;;;1.05;;
33279;SDS011;20403;43.114;12.434;2023-04-28T10:03:20;3.08;;;0.93;;
33279;SDS011;20403;43.114;12.434;2023-04-28T10:05:47;2.95;;;0.90;;
33279;SDS011;20403;43.114;12.434;2023-04-28T10:08:13;3.92;;;1.00;;
33279;SDS011;20403;43.114;12.434;2023-04-28T10:10:39;3.40;;;1.17;;
33279;SDS011;20403;43.114;12.434;2023-04-28T10:13:06;5.43;;;1.05;;
33279;SDS011;20403;43.114;12.434;2023-04-28T10:15:32;1.95;;;0.98;;
33279;SDS011;20403;43.114;12.434;2023-04-28T10:17:59;2.50;;;1.35;;
33279;SDS011;20403;43.114;12.434;2023-04-28T10:20:27;2.67;;;1.00;;
33279;SDS011;20403;43.114;12.434;2023-04-28T10:28:06;4.95;;;1.10;;
33279;SDS011;20403;43.114;12.434;2023-04-28T10:30:33;3.22;;;1.23;;
33279;SDS011;20403;43.114;12.434;2023-04-28T10:33:44;7.22;;;1.42;;
33279;SDS011;20403;43.114;12.434;2023-04-28T10:35:49;4.38;;;1.05;;
33279;SDS011;20403;43.114;12.434;2023-04-28T10:38:17;4.90;;;1.27;;
33279;SDS011;20403;43.114;12.434;2023-04-28T10:40:47;4.68;;;1.02;;
33279;SDS011;20403;43.114;12.434;2023-04-28T10:58:36;7.50;;;1.00;;
33279;SDS011;20403;43.114;12.434;2023-04-28T11:03:50;2.88;;;1.00;;
33279;SDS011;20403;43.114;12.434;2023-04-28T11:11:27;2.08;;;0.80;;
33279;SDS011;20403;43.114;12.434;2023-04-28T11:16:55;3.58;;;1.00;;
33279;SDS011;20403;43.114;12.434;2023-04-28T11:19:24;2.70;;;0.88;;
33279;SDS011;20403;43.114;12.434;2023-04-28T11:21:51;4.60;;;1.05;;
33279;SDS011;20403;43.114;12.434;2023-04-28T11:24:19;5.15;;;1.15;;
33279;SDS011;20403;43.114;12.434;2023-04-28T11:26:44;2.85;;;0.95;;
33279;SDS011;20403;43.114;12.434;2023-04-28T11:29:10;5.63;;;1.13;;
33279;SDS011;20403;43.114;12.434;2023-04-28T11:31:36;4.20;;;0.98;;
33279;SDS011;20403;43.114;12.434;2023-04-28T11:34:03;4.43;;;1.38;;
33279;SDS011;20403;43.114;12.434;2023-04-28T11:39:04;2.33;;;0.80;;
33279;SDS011;20403;43.114;12.434;2023-04-28T11:41:35;3.67;;;1.23;;
33279;SDS011;20403;43.114;12.434;2023-04-28T11:44:08;6.40;;;1.25;;
33279;SDS011;20403;43.114;12.434;2023-04-28T11:46:48;3.40;;;0.98;;
33279;SDS011;20403;43.114;12.434;2023-04-28T11:49:16;4.47;;;1.05;;
33279;SDS011;20403;43.114;12.434;2023-04-28T11:51:43;3.75;;;1.02;;
33279;SDS011;20403;43.114;12.434;2023-04-28T11:54:15;2.55;;;1.00;;
33279;SDS011;20403;43.114;12.434;2023-04-28T11:56:45;2.85;;;0.70;;
33279;SDS011;20403;43.114;12.434;2023-04-28T11:59:11;4.15;;;1.05;;
33279;SDS011;20403;43.114;12.434;2023-04-28T12:01:47;6.22;;;1.02;;
33279;SDS011;20403;43.114;12.434;2023-04-28T12:04:27;4.78;;;1.30;;
33279;SDS011;20403;43.114;12.434;2023-04-28T12:09:42;2.20;;;1.05;;
33279;SDS011;20403;43.114;12.434;2023-04-28T12:12:11;4.93;;;1.23;;
33279;SDS011;20403;43.114;12.434;2023-04-28T12:17:28;5.03;;;0.90;;
33279;SDS011;20403;43.114;12.434;2023-04-28T12:19:55;4.10;;;1.10;;
33279;SDS011;20403;43.114;12.434;2023-04-28T12:22:23;5.82;;;1.40;;
33279;SDS011;20403;43.114;12.434;2023-04-28T12:27:30;6.25;;;1.13;;
33279;SDS011;20403;43.114;12.434;2023-04-28T12:29:56;5.75;;;1.27;;
33279;SDS011;20403;43.114;12.434;2023-04-28T12:32:43;3.53;;;0.80;;
33279;SDS011;20403;43.114;12.434;2023-04-28T12:35:08;3.63;;;1.13;;
33279;SDS011;20403;43.114;12.434;2023-04-28T12:37:33;7.40;;;1.33;;
33279;SDS011;20403;43.114;12.434;2023-04-28T12:39:59;3.45;;;1.00;;
33279;SDS011;20403;43.114;12.434;2023-04-28T12:42:26;6.03;;;0.93;;
33279;SDS011;20403;43.114;12.434;2023-04-28T12:44:51;5.13;;;1.20;;
33279;SDS011;20403;43.114;12.434;2023-04-28T12:47:17;3.45;;;1.17;;
33279;SDS011;20403;43.114;12.434;2023-04-28T12:49:43;3.53;;;0.88;;
33279;SDS011;20403;43.114;12.434;2023-04-28T12:52:08;4.35;;;1.05;;
33279;SDS011;20403;43.114;12.434;2023-04-28T12:54:34;6.07;;;1.42;;
33279;SDS011;20403;43.114;12.434;2023-04-28T12:57:00;2.03;;;0.80;;
33279;SDS011;20403;43.114;12.434;2023-04-28T12:59:26;1.92;;;0.57;;
33279;SDS011;20403;43.114;12.434;2023-04-28T13:01:52;3.22;;;0.80;;
33279;SDS011;20403;43.114;12.434;2023-04-28T13:04:19;3.83;;;0.88;;
33279;SDS011;20403;43.114;12.434;2023-04-28T13:06:45;2.58;;;0.95;;
33279;SDS011;20403;43.114;12.434;2023-04-28T13:09:11;4.07;;;0.82;;
33279;SDS011;20403;43.114;12.434;2023-04-28T13:11:37;3.33;;;1.00;;
33279;SDS011;20403;43.114;12.434;2023-04-28T13:14:03;3.55;;;1.00;;
33279;SDS011;20403;43.114;12.434;2023-04-28T13:16:29;4.75;;;0.82;;
33279;SDS011;20403;43.114;12.434;2023-04-28T13:18:55;9.50;;;1.67;;
33279;SDS011;20403;43.114;12.434;2023-04-28T13:21:24;2.17;;;0.90;;
33279;SDS011;20403;43.114;12.434;2023-04-28T13:23:51;2.63;;;1.30;;
33279;SDS011;20403;43.114;12.434;2023-04-28T13:26:17;3.28;;;0.93;;
33279;SDS011;20403;43.114;12.434;2023-04-28T13:28:44;11.57;;;1.40;;
33279;SDS011;20403;43.114;12.434;2023-04-28T13:31:11;6.53;;;1.75;;
33279;SDS011;20403;43.114;12.434;2023-04-28T13:33:36;4.03;;;1.08;;
33279;SDS011;20403;43.114;12.434;2023-04-28T13:36:02;19.73;;;2.13;;
33279;SDS011;20403;43.114;12.434;2023-04-28T13:38:27;4.88;;;1.35;;
33279;SDS011;20403;43.114;12.434;2023-04-28T13:40:52;6.45;;;1.70;;
33279;SDS011;20403;43.114;12.434;2023-04-28T13:43:18;9.38;;;1.77;;
33279;SDS011;20403;43.114;12.434;2023-04-28T13:45:43;3.67;;;1.10;;
33279;SDS011;20403;43.114;12.434;2023-04-28T13:48:09;4.40;;;1.10;;
33279;SDS011;20403;43.114;12.434;2023-04-28T13:50:34;4.93;;;1.35;;
33279;SDS011;20403;43.114;12.434;2023-04-28T13:53:00;4.97;;;1.17;;
33279;SDS011;20403;43.114;12.434;2023-04-28T13:55:25;4.55;;;1.20;;
33279;SDS011;20403;43.114;12.434;2023-04-28T13:57:54;4.30;;;1.38;;
33279;SDS011;20403;43.114;12.434;2023-04-28T14:00:20;3.47;;;1.45;;
33279;SDS011;20403;43.114;12.434;2023-04-28T14:02:46;2.60;;;1.30;;
33279;SDS011;20403;43.114;12.434;2023-04-28T14:05:13;4.15;;;1.40;;
33279;SDS011;20403;43.114;12.434;2023-04-28T14:07:41;11.02;;;1.58;;
33279;SDS011;20403;43.114;12.434;2023-04-28T14:10:07;6.15;;;1.42;;
33279;SDS011;20403;43.114;12.434;2023-04-28T14:12:33;7.78;;;1.48;;
33279;SDS011;20403;43.114;12.434;2023-04-28T14:14:58;15.60;;;1.67;;
33279;SDS011;20403;43.114;12.434;2023-04-28T14:17:23;5.30;;;0.93;;
33279;SDS011;20403;43.114;12.434;2023-04-28T14:19:49;7.45;;;1.30;;
33279;SDS011;20403;43.114;12.434;2023-04-28T14:22:15;3.80;;;1.10;;
33279;SDS011;20403;43.114;12.434;2023-04-28T14:24:40;4.00;;;1.40;;
33279;SDS011;20403;43.114;12.434;2023-04-28T14:27:07;4.78;;;1.10;;
33279;SDS011;20403;43.114;12.434;2023-04-28T14:29:33;4.72;;;1.60;;
33279;SDS011;20403;43.114;12.434;2023-04-28T14:31:58;4.07;;;1.00;;
33279;SDS011;20403;43.114;12.434;2023-04-28T14:34:24;4.35;;;1.20;;
33279;SDS011;20403;43.114;12.434;2023-04-28T14:36:50;4.13;;;1.42;;
33279;SDS011;20403;43.114;12.434;2023-04-28T14:39:16;5.38;;;1.20;;
33279;SDS011;20403;43.114;12.434;2023-04-28T14:41:42;6.68;;;1.42;;
33279;SDS011;20403;43.114;12.434;2023-04-28T14:44:08;3.42;;;1.40;;
33279;SDS011;20403;43.114;12.434;2023-04-28T14:46:33;3.20;;;1.33;;
33279;SDS011;20403;43.114;12.434;2023-04-28T14:49:00;4.70;;;1.35;;
33279;SDS011;20403;43.114;12.434;2023-04-28T14:51:26;8.10;;;1.63;;
33279;SDS011;20403;43.114;12.434;2023-04-28T14:53:52;5.43;;;1.00;;
33279;SDS011;20403;43.114;12.434;2023-04-28T14:56:18;6.30;;;1.30;;
33279;SDS011;20403;43.114;12.434;2023-04-28T14:58:44;7.97;;;1.70;;
33279;SDS011;20403;43.114;12.434;2023-04-28T15:01:10;3.63;;;1.88;;
33279;SDS011;20403;43.114;12.434;2023-04-28T15:03:36;7.03;;;2.13;;
33279;SDS011;20403;43.114;12.434;2023-04-28T15:06:02;13.82;;;1.85;;
33279;SDS011;20403;43.114;12.434;2023-04-28T15:08:29;16.88;;;1.98;;
33279;SDS011;20403;43.114;12.434;2023-04-28T15:10:54;4.00;;;1.23;;
33279;SDS011;20403;43.114;12.434;2023-04-28T15:13:19;5.38;;;1.05;;
33279;SDS011;20403;43.114;12.434;2023-04-28T15:15:46;5.28;;;1.48;;